createdAt,value
2023-02-24T00:01:42.000Z,84.61
2023-02-24T00:04:13.128Z,84.51
2023-02-24T00:06:51.999Z,85.03
2023-02-24T00:09:22.377Z,84.71
2023-02-24T00:11:55.776Z,84.61
2023-02-24T00:20:21.565Z,85.08
2023-02-24T00:25:35.410Z,84.14
2023-02-24T00:28:03.216Z,84.31
2023-02-24T00:30:32.823Z,84.98
2023-02-24T00:33:04.092Z,85.13
2023-02-24T00:35:31.998Z,85.01
2023-02-24T00:38:01.103Z,84.88
2023-02-24T00:40:30.432Z,84.78
2023-02-24T00:42:58.040Z,85.54
2023-02-24T00:45:25.549Z,85.20
2023-02-24T00:47:53.104Z,85.30
2023-02-24T00:50:24.736Z,85.33
2023-02-24T00:52:55.259Z,85.43
2023-02-24T00:55:24.361Z,85.42
2023-02-24T00:57:54.635Z,85.38
2023-02-24T01:00:23.385Z,85.10
2023-02-24T01:02:50.891Z,84.85
2023-02-24T01:05:18.380Z,85.18
2023-02-24T01:07:46.038Z,85.25
2023-02-24T01:10:13.495Z,85.81
2023-02-24T01:12:50.610Z,85.93
2023-02-24T01:15:20.369Z,86.07
2023-02-24T01:17:47.933Z,86.21
2023-02-24T01:20:18.761Z,85.87
2023-02-24T01:22:48.783Z,85.74
2023-02-24T01:25:16.421Z,86.48
2023-02-24T01:27:45.382Z,86.45
2023-02-24T01:30:15.928Z,86.64
2023-02-24T01:32:44.579Z,86.02
2023-02-24T01:35:14.348Z,86.21
2023-02-24T01:37:43.177Z,86.40
2023-02-24T01:40:18.563Z,85.95
2023-02-24T01:42:49.371Z,86.03
2023-02-24T01:45:22.732Z,86.06
2023-02-24T01:47:50.484Z,85.69
2023-02-24T01:50:21.602Z,85.67
2023-02-24T01:52:51.286Z,85.99
2023-02-24T01:55:23.204Z,85.75
2023-02-24T01:57:53.730Z,85.98
2023-02-24T02:00:45.193Z,85.80
2023-02-24T02:03:19.692Z,86.28
2023-02-24T02:05:48.595Z,85.93
2023-02-24T02:08:17.446Z,85.80
2023-02-24T02:10:45.373Z,85.76
2023-02-24T02:13:20.898Z,85.52
2023-02-24T02:15:56.781Z,85.41
2023-02-24T02:18:32.198Z,85.62
2023-02-24T02:21:30.996Z,85.79
2023-02-24T02:24:05.427Z,85.53
2023-02-24T02:26:54.771Z,85.81
2023-02-24T02:29:51.443Z,85.47
2023-02-24T02:32:52.461Z,85.33
2023-02-24T02:35:23.740Z,85.47
2023-02-24T02:37:56.435Z,85.30
2023-02-24T02:40:27.663Z,85.24
2023-02-24T02:42:59.669Z,84.96
2023-02-24T02:45:30.541Z,84.78
2023-02-24T02:48:03.102Z,84.97
2023-02-24T02:50:36.400Z,84.33
2023-02-24T02:53:06.306Z,84.48
2023-02-24T02:55:37.596Z,84.45
2023-02-24T02:58:09.126Z,84.10
2023-02-24T03:00:42.162Z,84.03
2023-02-24T03:03:12.996Z,83.93
2023-02-24T03:05:47.245Z,84.16
2023-02-24T03:08:17.096Z,83.59
2023-02-24T03:10:51.078Z,83.61
2023-02-24T03:13:20.263Z,83.56
2023-02-24T03:15:48.714Z,83.44
2023-02-24T03:18:20.017Z,83.48
2023-02-24T03:20:51.742Z,82.81
2023-02-24T03:23:21.677Z,82.87
2023-02-24T03:25:53.376Z,83.08
2023-02-24T03:28:23.822Z,83.25
2023-02-24T03:30:57.958Z,83.13
2023-02-24T03:33:31.423Z,82.84
2023-02-24T03:36:02.066Z,82.53
2023-02-24T03:38:30.977Z,82.40
2023-02-24T03:40:59.179Z,82.03
2023-02-24T03:43:29.730Z,82.35
2023-02-24T03:45:58.724Z,82.33
2023-02-24T03:48:27.204Z,82.35
2023-02-24T03:50:55.040Z,82.06
2023-02-24T03:53:40.129Z,81.57
2023-02-24T03:56:16.879Z,81.73
2023-02-24T03:58:54.864Z,82.61
2023-02-24T04:01:27.913Z,82.06
2023-02-24T04:04:01.905Z,81.84
2023-02-24T04:06:35.392Z,81.71
2023-02-24T04:09:08.971Z,81.88
2023-02-24T04:11:42.778Z,81.30
2023-02-24T04:14:14.026Z,81.66
2023-02-24T04:16:45.781Z,81.84
2023-02-24T04:19:16.537Z,81.75
2023-02-24T04:21:45.520Z,81.47
2023-02-24T04:24:16.100Z,80.83
2023-02-24T04:26:44.714Z,81.16
2023-02-24T04:29:17.735Z,80.71
2023-02-24T04:31:47.041Z,80.99
2023-02-24T04:34:20.119Z,81.31
2023-02-24T04:36:49.568Z,81.38
2023-02-24T04:39:20.184Z,82.02
2023-02-24T04:41:49.423Z,82.39
2023-02-24T04:44:18.868Z,81.93
2023-02-24T04:46:46.991Z,82.08
2023-02-24T04:49:15.018Z,82.04
2023-02-24T04:51:43.386Z,81.93
2023-02-24T04:54:11.214Z,82.07
2023-02-24T04:56:42.589Z,82.37
2023-02-24T04:59:10.382Z,82.98
2023-02-24T05:01:40.861Z,82.53
2023-02-24T05:04:09.004Z,83.01
2023-02-24T05:06:40.692Z,82.96
2023-02-24T05:09:14.199Z,82.08
2023-02-24T05:11:49.124Z,82.78
2023-02-24T05:14:18.480Z,83.21
2023-02-24T05:16:47.765Z,83.47
2023-02-24T05:19:34.407Z,83.50
2023-02-24T05:22:03.401Z,83.71
2023-02-24T05:24:32.111Z,84.04
2023-02-24T05:27:03.566Z,83.84
2023-02-24T05:29:36.172Z,84.53
2023-02-24T05:32:05.789Z,84.72
2023-02-24T05:34:34.482Z,84.54
2023-02-24T05:37:07.472Z,84.62
2023-02-24T05:39:35.012Z,84.25
2023-02-24T05:42:07.104Z,85.18
2023-02-24T05:44:36.246Z,84.58
2023-02-24T05:47:08.334Z,84.57
2023-02-24T05:49:38.902Z,84.65
2023-02-24T05:52:09.527Z,84.69
2023-02-24T05:54:40.410Z,84.80
2023-02-24T05:57:11.983Z,84.85
2023-02-24T05:59:40.023Z,84.91
2023-02-24T06:02:12.137Z,84.78
2023-02-24T06:04:46.536Z,84.93
2023-02-24T06:07:19.449Z,84.69
2023-02-24T06:09:50.462Z,84.45
2023-02-24T06:12:20.378Z,85.47
2023-02-24T06:14:48.001Z,85.35
2023-02-24T06:17:17.134Z,85.56
2023-02-24T06:19:45.083Z,85.30
2023-02-24T06:22:14.586Z,85.70
2023-02-24T06:24:44.366Z,85.82
2023-02-24T06:27:17.512Z,85.66
2023-02-24T06:29:49.800Z,85.67
2023-02-24T06:32:20.451Z,86.08
2023-02-24T06:34:50.301Z,86.22
2023-02-24T06:37:18.383Z,86.70
2023-02-24T06:39:46.289Z,86.47
2023-02-24T06:42:16.187Z,86.31
2023-02-24T06:44:44.053Z,86.46
2023-02-24T06:47:14.735Z,86.13
2023-02-24T06:49:42.592Z,86.16
2023-02-24T06:52:10.950Z,86.63
2023-02-24T06:54:38.494Z,86.05
2023-02-24T06:57:05.913Z,86.85
2023-02-24T06:59:34.392Z,87.33
2023-02-24T07:02:03.426Z,87.47
2023-02-24T07:04:43.490Z,87.50
2023-02-24T07:07:14.044Z,87.49
2023-02-24T07:09:43.713Z,88.22
2023-02-24T07:12:12.625Z,89.18
2023-02-24T07:14:40.930Z,88.84
2023-02-24T07:17:08.659Z,89.16
2023-02-24T07:19:38.468Z,89.19
2023-02-24T07:22:06.085Z,89.64
2023-02-24T07:24:36.808Z,90.33
2023-02-24T07:27:06.410Z,90.78
2023-02-24T07:29:34.975Z,91.33
2023-02-24T07:32:05.562Z,91.55
2023-02-24T07:34:40.662Z,90.97
2023-02-24T07:37:10.014Z,92.27
2023-02-24T07:39:39.329Z,92.52
2023-02-24T07:42:12.331Z,92.92
2023-02-24T07:44:39.861Z,93.67
2023-02-24T07:47:08.742Z,92.86
2023-02-24T07:49:36.667Z,93.16
2023-02-24T07:52:08.012Z,93.67
2023-02-24T07:54:39.192Z,93.97
2023-02-24T07:57:13.530Z,94.16
2023-02-24T07:59:47.434Z,94.52
2023-02-24T08:02:15.459Z,96.59
2023-02-24T08:04:49.817Z,95.67
2023-02-24T08:07:17.714Z,96.47
2023-02-24T08:10:03.737Z,96.54
2023-02-24T08:12:31.157Z,97.02
2023-02-24T08:15:00.235Z,97.41
2023-02-24T08:17:28.633Z,97.18
2023-02-24T08:20:21.903Z,96.01
2023-02-24T08:22:52.373Z,97.92
2023-02-24T08:25:24.820Z,98.28
2023-02-24T08:28:08.013Z,98.24
2023-02-24T08:30:39.956Z,98.77
2023-02-24T08:33:10.048Z,99.26
2023-02-24T08:35:44.570Z,99.36
2023-02-24T08:38:15.370Z,99.85
2023-02-24T08:40:54.358Z,100.00
2023-02-24T08:43:34.750Z,100.00
2023-02-24T08:46:05.880Z,99.27
2023-02-24T08:48:38.240Z,99.93
2023-02-24T08:51:09.436Z,100.00
2023-02-24T08:53:40.667Z,100.00
2023-02-24T08:56:11.688Z,100.00
2023-02-24T08:58:46.817Z,100.00
2023-02-24T09:01:24.159Z,100.00
2023-02-24T09:03:54.905Z,100.00
2023-02-24T09:06:26.296Z,100.00
2023-02-24T09:09:17.190Z,100.00
2023-02-24T09:11:46.850Z,100.00
2023-02-24T09:14:26.822Z,100.00
2023-02-24T09:17:06.858Z,100.00
2023-02-24T09:19:56.748Z,100.00
2023-02-24T09:22:57.088Z,100.00
2023-02-24T09:25:33.161Z,100.00
2023-02-24T09:28:09.028Z,100.00
2023-02-24T09:30:38.398Z,100.00
2023-02-24T09:33:17.803Z,100.00
2023-02-24T09:36:00.556Z,100.00
2023-02-24T09:38:57.870Z,100.00
2023-02-24T09:41:33.672Z,100.00
2023-02-24T09:44:07.478Z,100.00
2023-02-24T09:46:40.326Z,100.00
2023-02-24T09:49:17.277Z,100.00
2023-02-24T09:51:45.137Z,100.00
2023-02-24T09:54:15.711Z,100.00
2023-02-24T09:56:50.184Z,100.00
2023-02-24T09:59:26.295Z,100.00
2023-02-24T10:02:02.204Z,100.00
2023-02-24T10:04:49.176Z,100.00
2023-02-24T10:07:18.387Z,100.00
2023-02-24T10:09:50.609Z,100.00
2023-02-24T10:12:24.099Z,100.00
2023-02-24T10:15:16.487Z,100.00
2023-02-24T10:17:48.280Z,100.00
2023-02-24T10:20:30.977Z,100.00
2023-02-24T10:23:02.673Z,100.00
2023-02-24T10:25:41.585Z,100.00
2023-02-24T10:28:20.142Z,100.00
2023-02-24T10:31:03.736Z,100.00
2023-02-24T10:33:38.806Z,100.00
2023-02-24T10:36:09.318Z,100.00
2023-02-24T10:38:38.076Z,100.00
2023-02-24T10:41:07.188Z,100.00
2023-02-24T10:43:45.438Z,100.00
2023-02-24T10:46:39.980Z,100.00
2023-02-24T10:49:11.815Z,100.00
2023-02-24T10:51:41.347Z,100.00
2023-02-24T10:54:30.599Z,100.00
2023-02-24T10:57:07.900Z,100.00
2023-02-24T10:59:58.573Z,100.00
2023-02-24T11:02:33.000Z,100.00
2023-02-24T11:05:26.705Z,100.00
2023-02-24T11:08:08.033Z,100.00
2023-02-24T11:10:53.091Z,100.00
2023-02-24T11:13:39.194Z,100.00
2023-02-24T11:16:26.832Z,100.00
2023-02-24T11:18:56.588Z,100.00
2023-02-24T11:21:24.916Z,100.00
2023-02-24T11:23:54.768Z,100.00
2023-02-24T11:26:25.899Z,100.00
2023-02-24T11:29:19.876Z,100.00
2023-02-24T11:31:58.512Z,100.00
2023-02-24T11:34:33.335Z,100.00
2023-02-24T11:37:09.139Z,100.00
2023-02-24T11:39:48.595Z,100.00
2023-02-24T11:42:17.812Z,100.00
2023-02-24T11:44:52.805Z,100.00
2023-02-24T11:47:24.465Z,100.00
2023-02-24T11:49:56.980Z,100.00
2023-02-24T11:52:31.634Z,100.00
2023-02-24T11:55:03.828Z,100.00
2023-02-24T11:57:35.424Z,100.00
2023-02-24T12:00:13.127Z,100.00
2023-02-24T12:02:48.048Z,100.00
2023-02-24T12:05:19.604Z,100.00
2023-02-24T12:07:50.323Z,100.00
2023-02-24T12:10:21.114Z,100.00
2023-02-24T12:12:53.890Z,100.00
2023-02-24T12:15:25.088Z,100.00
2023-02-24T12:17:59.130Z,100.00
2023-02-24T12:20:31.253Z,100.00
2023-02-24T12:23:02.416Z,100.00
2023-02-24T12:25:32.487Z,100.00
2023-02-24T12:28:10.880Z,100.00
2023-02-24T12:30:49.877Z,100.00
2023-02-24T12:33:28.982Z,100.00
2023-02-24T12:36:04.885Z,100.00
2023-02-24T12:38:46.305Z,100.00
2023-02-24T12:41:26.228Z,100.00
2023-02-24T12:43:57.525Z,100.00
2023-02-24T12:46:27.002Z,100.00
2023-02-24T12:49:21.123Z,100.00
2023-02-24T12:51:57.148Z,100.00
2023-02-24T12:54:29.867Z,100.00
2023-02-24T12:57:01.512Z,100.00
2023-02-24T12:59:31.525Z,100.00
2023-02-24T13:02:01.359Z,100.00
2023-02-24T13:04:38.226Z,100.00
2023-02-24T13:07:20.676Z,100.00
2023-02-24T13:09:52.420Z,100.00
2023-02-24T13:12:27.159Z,100.00
2023-02-24T13:14:54.962Z,100.00
2023-02-24T13:17:24.281Z,100.00
2023-02-24T13:19:53.713Z,100.00
2023-02-24T13:22:29.008Z,100.00
2023-02-24T13:24:59.584Z,100.00
2023-02-24T13:27:28.840Z,100.00
2023-02-24T13:29:57.986Z,100.00
2023-02-24T13:32:29.605Z,100.00
2023-02-24T13:34:57.797Z,100.00
2023-02-24T13:37:37.047Z,100.00
2023-02-24T13:40:23.440Z,100.00
2023-02-24T13:42:58.638Z,100.00
2023-02-24T13:45:29.098Z,100.00
2023-02-24T13:48:17.598Z,100.00
2023-02-24T13:50:56.494Z,100.00
2023-02-24T13:53:37.654Z,100.00
2023-02-24T13:56:15.048Z,100.00
2023-02-24T13:58:54.746Z,100.00
2023-02-24T14:01:22.789Z,100.00
2023-02-24T14:04:06.229Z,100.00
2023-02-24T14:06:34.077Z,100.00
2023-02-24T14:09:04.853Z,100.00
2023-02-24T14:11:33.769Z,100.00
2023-02-24T14:14:01.429Z,100.00
2023-02-24T14:16:32.588Z,100.00
2023-02-24T14:19:02.233Z,100.00
2023-02-24T14:21:31.368Z,100.00
2023-02-24T14:24:00.273Z,100.00
2023-02-24T14:26:29.759Z,100.00
2023-02-24T14:29:01.530Z,100.00
2023-02-24T14:31:30.112Z,100.00
2023-02-24T14:33:59.957Z,100.00
2023-02-24T14:36:30.082Z,100.00
2023-02-24T14:39:08.026Z,100.00
2023-02-24T14:41:37.082Z,100.00
2023-02-24T14:44:16.829Z,100.00
2023-02-24T14:46:48.705Z,100.00
2023-02-24T14:49:20.088Z,100.00
2023-02-24T14:51:50.896Z,100.00
2023-02-24T14:54:22.192Z,100.00
2023-02-24T14:56:51.210Z,100.00
2023-02-24T14:59:22.775Z,100.00
2023-02-24T15:01:51.331Z,100.00
2023-02-24T15:04:27.435Z,100.00
2023-02-24T15:06:55.202Z,100.00
2023-02-24T15:09:25.204Z,100.00
2023-02-24T15:11:56.179Z,100.00
2023-02-24T15:14:26.175Z,100.00
2023-02-24T15:16:55.710Z,100.00
2023-02-24T15:19:27.362Z,100.00
2023-02-24T15:21:55.177Z,100.00
2023-02-24T15:24:26.880Z,100.00
2023-02-24T15:26:58.176Z,100.00
2023-02-24T15:29:27.759Z,100.00
2023-02-24T15:31:56.653Z,100.00
2023-02-24T15:34:25.870Z,100.00
2023-02-24T15:36:56.376Z,100.00
2023-02-24T15:39:26.189Z,100.00
2023-02-24T15:42:07.684Z,100.00
2023-02-24T15:44:37.095Z,100.00
2023-02-24T15:47:20.793Z,100.00
2023-02-24T15:49:48.330Z,100.00
2023-02-24T15:52:16.826Z,100.00
2023-02-24T15:54:44.298Z,100.00
2023-02-24T15:57:17.893Z,100.00
2023-02-24T15:59:45.876Z,100.00
2023-02-24T16:02:15.955Z,100.00
2023-02-24T16:04:43.335Z,100.00
2023-02-24T16:07:12.574Z,100.00
2023-02-24T16:09:41.239Z,100.00
2023-02-24T16:12:12.045Z,100.00
2023-02-24T16:14:41.174Z,100.00
2023-02-24T16:17:10.744Z,100.00
2023-02-24T16:19:38.540Z,100.00
2023-02-24T16:22:06.064Z,100.00
2023-02-24T16:24:33.627Z,100.00
2023-02-24T16:27:01.201Z,100.00
2023-02-24T16:29:29.049Z,100.00
2023-02-24T16:31:58.219Z,100.00
2023-02-24T16:34:26.037Z,100.00
2023-02-24T16:36:53.703Z,100.00
2023-02-24T16:39:21.597Z,100.00
2023-02-24T16:41:49.504Z,100.00
2023-02-24T16:44:17.354Z,100.00
2023-02-24T16:46:47.812Z,100.00
2023-02-24T16:49:19.972Z,100.00
2023-02-24T16:51:47.671Z,100.00
2023-02-24T16:54:15.735Z,100.00
2023-02-24T16:56:43.171Z,100.00
2023-02-24T16:59:10.599Z,100.00
2023-02-24T17:01:38.233Z,100.00
2023-02-24T17:04:09.588Z,100.00
2023-02-24T17:06:38.463Z,100.00
2023-02-24T17:09:05.851Z,100.00
2023-02-24T17:11:34.160Z,100.00
2023-02-24T17:14:03.099Z,100.00
2023-02-24T17:16:30.614Z,100.00
2023-02-24T17:18:58.263Z,100.00
2023-02-24T17:21:25.847Z,100.00
2023-02-24T17:23:54.756Z,100.00
2023-02-24T17:26:22.575Z,100.00
2023-02-24T17:28:50.175Z,100.00
2023-02-24T17:31:17.708Z,100.00
2023-02-24T17:33:45.209Z,100.00
2023-02-24T17:36:12.789Z,100.00
2023-02-24T17:38:40.414Z,100.00
2023-02-24T17:41:10.900Z,100.00
2023-02-24T17:43:38.531Z,100.00
2023-02-24T17:46:07.429Z,100.00
2023-02-24T17:48:35.212Z,100.00
2023-02-24T17:51:03.066Z,100.00
2023-02-24T17:53:31.171Z,100.00
2023-02-24T17:56:04.074Z,100.00
2023-02-24T17:58:34.042Z,100.00
2023-02-24T18:01:02.767Z,100.00
2023-02-24T18:03:31.159Z,100.00
2023-02-24T18:06:00.526Z,100.00
2023-02-24T18:08:28.182Z,100.00
2023-02-24T18:10:56.674Z,100.00
2023-02-24T18:13:24.340Z,100.00
2023-02-24T18:15:53.459Z,100.00
2023-02-24T18:18:21.442Z,100.00
2023-02-24T18:20:49.066Z,100.00
2023-02-24T18:23:16.679Z,100.00
2023-02-24T18:25:44.671Z,100.00
2023-02-24T18:28:12.299Z,100.00
2023-02-24T18:30:40.917Z,100.00
2023-02-24T18:33:10.215Z,100.00
2023-02-24T18:35:38.908Z,100.00
2023-02-24T18:38:06.625Z,100.00
2023-02-24T18:40:34.248Z,100.00
2023-02-24T18:43:01.853Z,100.00
2023-02-24T18:45:29.548Z,100.00
2023-02-24T18:47:57.169Z,100.00
2023-02-24T18:50:26.231Z,100.00
2023-02-24T18:52:54.664Z,100.00
2023-02-24T18:55:22.783Z,100.00
2023-02-24T18:57:50.349Z,100.00
2023-02-24T19:00:19.067Z,100.00
2023-02-24T19:02:47.597Z,100.00
2023-02-24T19:05:37.905Z,100.00
2023-02-24T19:08:07.950Z,100.00
2023-02-24T19:10:40.417Z,100.00
2023-02-24T19:13:08.426Z,100.00
2023-02-24T19:15:36.457Z,100.00
2023-02-24T19:18:04.975Z,100.00
2023-02-24T19:20:34.913Z,100.00
2023-02-24T19:23:05.764Z,100.00
2023-02-24T19:25:36.959Z,100.00
2023-02-24T19:28:05.107Z,100.00
2023-02-24T19:31:41.556Z,100.00
2023-02-24T19:34:13.016Z,100.00
2023-02-24T19:36:41.103Z,100.00
2023-02-24T19:39:10.823Z,100.00
2023-02-24T19:41:40.139Z,100.00
2023-02-24T19:44:08.465Z,100.00
2023-02-24T19:46:36.599Z,100.00
2023-02-24T19:49:05.433Z,100.00
2023-02-24T19:51:33.395Z,100.00
2023-02-24T19:54:03.120Z,100.00
2023-02-24T19:56:33.959Z,100.00
2023-02-24T19:59:04.340Z,100.00
2023-02-24T20:01:32.222Z,100.00
2023-02-24T20:04:04.851Z,100.00
2023-02-24T20:06:35.824Z,100.00
2023-02-24T20:09:06.563Z,100.00
2023-02-24T20:11:36.513Z,100.00
2023-02-24T20:14:06.246Z,100.00
2023-02-24T20:16:34.701Z,100.00
2023-02-24T20:19:03.088Z,100.00
2023-02-24T20:21:31.642Z,100.00
2023-02-24T20:24:00.741Z,100.00
2023-02-24T20:26:29.185Z,100.00
2023-02-24T20:28:58.347Z,100.00
2023-02-24T20:31:27.251Z,100.00
2023-02-24T20:33:56.419Z,100.00
2023-02-24T20:36:26.345Z,100.00
2023-02-24T20:38:55.597Z,100.00
2023-02-24T20:41:24.687Z,100.00
2023-02-24T20:43:52.609Z,100.00
2023-02-24T20:46:24.898Z,100.00
2023-02-24T20:48:57.057Z,100.00
2023-02-24T20:51:24.534Z,100.00
2023-02-24T20:53:57.815Z,100.00
2023-02-24T20:56:26.190Z,100.00
2023-02-24T20:58:55.169Z,100.00
2023-02-24T21:01:23.121Z,100.00
2023-02-24T21:03:51.597Z,100.00
2023-02-24T21:06:20.634Z,100.00
2023-02-24T21:08:48.180Z,100.00
2023-02-24T21:11:16.701Z,100.00
2023-02-24T21:13:46.367Z,100.00
2023-02-24T21:16:15.681Z,100.00
2023-02-24T21:18:45.111Z,100.00
2023-02-24T21:21:15.053Z,100.00
2023-02-24T21:23:44.498Z,100.00
2023-02-24T21:26:12.569Z,100.00
2023-02-24T21:28:41.337Z,100.00
2023-02-24T21:31:09.709Z,100.00
2023-02-24T21:33:37.734Z,100.00
2023-02-24T21:36:07.104Z,100.00
2023-02-24T21:38:36.286Z,100.00
2023-02-24T21:41:08.241Z,100.00
2023-02-24T21:43:38.030Z,100.00
2023-02-24T21:46:09.353Z,100.00
2023-02-24T21:48:40.303Z,100.00
2023-02-24T21:51:12.394Z,100.00
2023-02-24T21:53:49.172Z,100.00
2023-02-24T21:56:29.354Z,100.00
2023-02-24T21:59:06.923Z,100.00
2023-02-24T22:01:40.441Z,100.00
2023-02-24T22:04:13.677Z,100.00
2023-02-24T22:06:44.799Z,100.00
2023-02-24T22:09:15.077Z,100.00
2023-02-24T22:11:44.258Z,100.00
2023-02-24T22:14:13.622Z,100.00
2023-02-24T22:16:43.098Z,100.00
2023-02-24T22:19:13.142Z,100.00
2023-02-24T22:21:43.031Z,100.00
2023-02-24T22:24:13.867Z,100.00
2023-02-24T22:30:17.146Z,100.00
2023-02-24T22:45:29.428Z,100.00
2023-02-24T22:47:59.696Z,100.00
2023-02-24T22:50:27.676Z,100.00
2023-02-24T22:52:59.132Z,100.00
2023-02-24T22:58:22.672Z,100.00
2023-02-24T23:00:54.785Z,100.00
2023-02-24T23:03:27.790Z,100.00
2023-02-24T23:05:56.383Z,100.00
2023-02-24T23:08:27.215Z,100.00
2023-02-24T23:10:55.940Z,100.00
2023-02-24T23:13:24.173Z,100.00
2023-02-24T23:15:56.726Z,100.00
2023-02-24T23:18:26.018Z,100.00
2023-02-24T23:26:44.905Z,100.00
2023-02-24T23:38:42.283Z,100.00
2023-02-24T23:41:11.460Z,100.00
2023-02-24T23:43:39.238Z,100.00
2023-02-24T23:46:09.400Z,100.00
2023-02-24T23:48:37.498Z,100.00
2023-02-24T23:51:09.484Z,100.00
2023-02-24T23:53:40.027Z,100.00
2023-02-24T23:56:11.277Z,100.00
2023-02-24T23:58:38.862Z,100.00
